createdAt,value
2023-01-18T00:03:58.946Z,37.00
2023-01-18T00:09:04.578Z,37.29
2023-01-18T00:14:09.513Z,37.39
2023-01-18T00:19:14.428Z,37.79
2023-01-18T00:24:19.446Z,37.69
2023-01-18T00:29:25.326Z,38.24
2023-01-18T00:34:30.518Z,36.93
2023-01-18T00:39:35.032Z,36.87
2023-01-18T00:44:39.673Z,36.30
2023-01-18T00:49:45.534Z,37.64
2023-01-18T00:54:51.031Z,37.03
2023-01-18T00:59:55.567Z,37.05
2023-01-18T01:05:18.325Z,37.01
2023-01-18T01:10:23.139Z,36.11
2023-01-18T01:15:45.867Z,36.12
2023-01-18T01:21:08.751Z,36.17
2023-01-18T01:26:14.120Z,35.70
2023-01-18T01:31:20.801Z,35.62
2023-01-18T01:36:29.646Z,35.81
2023-01-18T01:41:36.319Z,35.53
2023-01-18T01:46:43.886Z,36.38
2023-01-18T01:52:11.564Z,35.10
2023-01-18T01:57:16.902Z,35.41
2023-01-18T02:02:21.902Z,35.04
2023-01-18T02:07:30.119Z,35.37
2023-01-18T02:12:36.527Z,35.43
2023-01-18T02:17:47.678Z,34.85
2023-01-18T02:23:25.749Z,35.09
2023-01-18T02:28:39.521Z,34.90
2023-01-18T02:33:56.623Z,35.30
2023-01-18T02:39:26.119Z,34.27
2023-01-18T02:44:59.736Z,34.79
2023-01-18T02:50:04.709Z,34.24
2023-01-18T02:55:19.264Z,34.34
2023-01-18T03:00:25.117Z,34.21
2023-01-18T03:05:32.320Z,34.32
2023-01-18T03:10:48.084Z,34.26
2023-01-18T03:15:59.191Z,34.15
2023-01-18T03:21:07.939Z,33.81
2023-01-18T03:26:18.657Z,33.77
2023-01-18T03:32:10.140Z,34.28
2023-01-18T03:37:21.588Z,33.83
2023-01-18T03:42:35.574Z,33.95
2023-01-18T03:47:42.213Z,33.83
2023-01-18T03:52:53.971Z,33.80
2023-01-18T03:58:07.539Z,33.55
2023-01-18T04:03:12.301Z,33.47
2023-01-18T04:08:17.897Z,33.69
2023-01-18T04:13:25.071Z,33.43
2023-01-18T04:18:31.202Z,33.50
2023-01-18T04:23:36.197Z,33.13
2023-01-18T04:28:41.512Z,34.29
2023-01-18T04:33:46.071Z,33.10
2023-01-18T04:38:55.566Z,33.48
2023-01-18T04:44:00.148Z,32.46
2023-01-18T04:49:05.700Z,32.42
2023-01-18T04:54:11.314Z,32.70
2023-01-18T04:59:17.791Z,32.70
2023-01-18T05:04:22.818Z,33.03
2023-01-18T05:09:27.844Z,31.57
2023-01-18T05:14:32.424Z,31.85
2023-01-18T05:19:36.504Z,33.01
2023-01-18T05:24:41.033Z,32.26
2023-01-18T05:29:45.887Z,32.45
2023-01-18T05:34:50.641Z,32.90
2023-01-18T05:39:55.191Z,32.57
2023-01-18T05:44:59.818Z,32.93
2023-01-18T05:50:04.397Z,33.18
2023-01-18T05:55:09.324Z,32.65
2023-01-18T06:00:14.175Z,31.97
2023-01-18T06:05:18.917Z,32.06
2023-01-18T06:10:23.569Z,32.43
2023-01-18T06:15:28.237Z,32.63
2023-01-18T06:20:33.444Z,32.71
2023-01-18T06:25:39.146Z,32.98
2023-01-18T06:30:44.050Z,32.59
2023-01-18T06:35:48.937Z,32.29
2023-01-18T06:40:53.504Z,32.48
2023-01-18T06:45:58.709Z,32.38
2023-01-18T06:51:02.865Z,32.66
2023-01-18T06:56:12.640Z,32.24
2023-01-18T07:01:17.446Z,32.81
2023-01-18T07:06:22.460Z,32.07
2023-01-18T07:11:28.256Z,32.24
2023-01-18T07:16:34.339Z,32.04
2023-01-18T07:21:39.040Z,31.82
2023-01-18T07:26:45.396Z,31.89
2023-01-18T07:31:50.160Z,30.20
2023-01-18T07:36:55.960Z,31.71
2023-01-18T07:42:00.606Z,32.13
2023-01-18T07:47:06.411Z,31.56
2023-01-18T07:52:13.408Z,31.42
2023-01-18T07:57:18.137Z,32.00
2023-01-18T08:02:22.803Z,31.69
2023-01-18T08:07:27.899Z,31.88
2023-01-18T08:12:32.551Z,31.88
2023-01-18T08:17:37.703Z,31.30
2023-01-18T08:22:42.484Z,30.28
2023-01-18T08:27:47.182Z,31.08
2023-01-18T08:32:52.693Z,31.40
2023-01-18T08:37:59.018Z,31.11
2023-01-18T08:43:05.120Z,30.38
2023-01-18T08:48:14.412Z,30.98
2023-01-18T08:53:19.033Z,31.50
2023-01-18T08:58:23.661Z,31.17
2023-01-18T09:03:28.259Z,31.16
2023-01-18T09:08:33.179Z,31.62
2023-01-18T09:13:43.121Z,31.75
2023-01-18T09:19:01.358Z,31.38
2023-01-18T09:24:06.562Z,31.78
2023-01-18T09:29:12.522Z,31.72
2023-01-18T09:34:20.254Z,31.80
2023-01-18T09:39:25.348Z,31.69
2023-01-18T09:44:35.671Z,31.74
2023-01-18T09:49:53.474Z,31.97
2023-01-18T09:55:11.934Z,31.63
2023-01-18T10:00:30.232Z,32.64
2023-01-18T10:05:38.925Z,32.58
2023-01-18T10:10:59.449Z,32.51
2023-01-18T10:16:04.347Z,32.45
2023-01-18T10:21:10.323Z,32.87
2023-01-18T10:26:32.098Z,32.90
2023-01-18T10:31:53.672Z,32.92
2023-01-18T10:37:16.900Z,33.34
2023-01-18T10:42:27.772Z,32.72
2023-01-18T10:47:32.462Z,32.82
2023-01-18T10:52:39.065Z,33.23
2023-01-18T10:57:56.379Z,32.98
2023-01-18T11:03:04.087Z,33.68
2023-01-18T11:08:16.385Z,33.35
2023-01-18T11:13:48.358Z,33.31
2023-01-18T11:19:00.519Z,33.62
2023-01-18T11:24:30.660Z,32.74
2023-01-18T11:29:43.878Z,33.72
2023-01-18T11:34:58.375Z,33.15
2023-01-18T11:40:28.227Z,33.03
2023-01-18T11:45:40.118Z,33.98
2023-01-18T11:50:57.293Z,33.14
2023-01-18T11:56:11.599Z,33.94
2023-01-18T12:01:44.797Z,33.16
2023-01-18T12:07:07.992Z,34.26
2023-01-18T12:12:22.738Z,35.14
2023-01-18T12:18:12.788Z,34.95
2023-01-18T12:23:40.952Z,34.11
2023-01-18T12:29:45.498Z,35.09
2023-01-18T12:34:50.152Z,35.00
2023-01-18T12:40:17.368Z,35.34
2023-01-18T12:45:27.754Z,35.64
2023-01-18T12:50:40.673Z,36.97
2023-01-18T12:55:49.314Z,36.17
2023-01-18T13:01:05.527Z,36.41
2023-01-18T13:06:12.745Z,37.49
2023-01-18T13:11:25.725Z,36.86
2023-01-18T13:17:05.917Z,36.49
2023-01-18T13:22:34.742Z,36.30
2023-01-18T13:27:40.565Z,37.31
2023-01-18T13:32:47.004Z,36.07
2023-01-18T13:37:56.267Z,36.42
2023-01-18T13:43:01.319Z,35.85
2023-01-18T13:48:46.777Z,35.31
2023-01-18T13:53:53.423Z,36.52
2023-01-18T13:59:14.577Z,36.50
2023-01-18T14:04:29.015Z,35.85
2023-01-18T14:09:50.117Z,36.17
2023-01-18T14:14:59.870Z,36.76
2023-01-18T14:20:47.079Z,35.48
2023-01-18T14:26:08.181Z,35.79
2023-01-18T14:31:29.482Z,36.56
2023-01-18T14:36:37.701Z,35.75
2023-01-18T14:41:46.301Z,36.70
2023-01-18T14:46:59.265Z,35.92
2023-01-18T14:52:07.559Z,37.11
2023-01-18T14:57:16.375Z,35.88
2023-01-18T15:02:28.498Z,36.96
2023-01-18T15:07:35.682Z,37.35
2023-01-18T15:12:41.225Z,36.44
2023-01-18T15:17:46.189Z,36.98
2023-01-18T15:22:52.719Z,37.24
2023-01-18T15:28:08.932Z,36.63
2023-01-18T15:33:26.188Z,37.51
2023-01-18T15:38:31.540Z,37.56
2023-01-18T15:43:39.994Z,36.81
2023-01-18T15:49:01.455Z,36.74
2023-01-18T15:54:07.462Z,37.61
2023-01-18T15:59:15.272Z,36.57
2023-01-18T16:04:26.889Z,36.72
2023-01-18T16:09:33.313Z,37.38
2023-01-18T16:14:41.523Z,37.27
2023-01-18T16:19:54.679Z,38.49
2023-01-18T16:25:14.103Z,37.02
2023-01-18T16:30:37.255Z,38.08
2023-01-18T16:35:44.273Z,38.47
2023-01-18T16:40:51.561Z,37.78
2023-01-18T16:46:02.442Z,38.27
2023-01-18T16:51:13.903Z,37.81
2023-01-18T16:56:19.073Z,37.93
2023-01-18T17:01:24.922Z,38.36
2023-01-18T17:06:30.631Z,38.16
2023-01-18T17:11:36.547Z,37.78
2023-01-18T17:16:44.600Z,39.96
2023-01-18T17:21:52.485Z,38.45
2023-01-18T17:26:58.178Z,37.66
2023-01-18T17:32:03.095Z,37.59
2023-01-18T17:37:09.554Z,37.38
2023-01-18T17:42:18.998Z,37.34
2023-01-18T17:47:28.665Z,38.13
2023-01-18T17:52:34.097Z,37.50
2023-01-18T17:57:38.610Z,38.54
2023-01-18T18:02:44.302Z,38.71
2023-01-18T18:07:50.792Z,38.31
2023-01-18T18:12:57.081Z,38.03
2023-01-18T18:18:02.997Z,38.08
2023-01-18T18:23:09.505Z,37.90
2023-01-18T18:28:14.420Z,38.56
2023-01-18T18:33:21.138Z,38.03
2023-01-18T18:38:27.852Z,39.28
2023-01-18T18:43:33.953Z,37.85
2023-01-18T18:48:40.092Z,38.58
2023-01-18T18:53:47.696Z,38.71
2023-01-18T18:58:52.318Z,38.56
2023-01-18T19:03:58.618Z,39.07
2023-01-18T19:09:04.826Z,38.83
2023-01-18T19:14:11.857Z,39.16
2023-01-18T19:19:17.702Z,38.20
2023-01-18T19:24:22.382Z,38.52
2023-01-18T19:29:26.882Z,38.30
2023-01-18T19:34:32.458Z,38.99
2023-01-18T19:39:38.343Z,38.94
2023-01-18T19:44:43.123Z,38.66
2023-01-18T19:49:47.811Z,38.85
2023-01-18T19:54:52.354Z,39.63
2023-01-18T19:59:57.707Z,38.54
2023-01-18T20:05:02.925Z,38.72
2023-01-18T20:10:09.584Z,39.13
2023-01-18T20:15:16.728Z,39.80
2023-01-18T20:20:31.824Z,39.76
2023-01-18T20:25:39.102Z,42.62
2023-01-18T20:30:51.298Z,39.54
2023-01-18T20:35:56.238Z,40.93
2023-01-18T20:41:01.502Z,40.10
2023-01-18T20:46:10.833Z,39.92
2023-01-18T20:51:16.251Z,40.11
2023-01-18T20:56:30.130Z,39.49
2023-01-18T21:01:36.735Z,39.76
2023-01-18T21:06:45.977Z,39.27
2023-01-18T21:11:51.414Z,39.44
2023-01-18T21:16:56.247Z,39.60
2023-01-18T21:22:01.077Z,39.52
2023-01-18T21:27:07.624Z,39.13
2023-01-18T21:32:12.631Z,40.07
2023-01-18T21:37:19.150Z,39.98
2023-01-18T21:42:41.600Z,39.43
2023-01-18T21:47:46.664Z,39.25
2023-01-18T21:53:11.145Z,39.79
2023-01-18T21:58:35.632Z,39.40
2023-01-18T22:03:40.585Z,38.78
2023-01-18T22:08:45.563Z,38.99
2023-01-18T22:13:50.607Z,38.78
2023-01-18T22:18:56.695Z,38.98
2023-01-18T22:24:02.626Z,39.80
2023-01-18T22:29:07.912Z,39.72
2023-01-18T22:34:21.902Z,39.34
2023-01-18T22:39:26.938Z,40.13
2023-01-18T22:44:32.640Z,40.23
2023-01-18T22:49:39.480Z,40.52
2023-01-18T22:54:44.477Z,40.63
2023-01-18T22:59:49.773Z,40.18
2023-01-18T23:04:57.359Z,40.20
2023-01-18T23:10:03.376Z,40.81
2023-01-18T23:15:27.470Z,40.55
2023-01-18T23:20:32.564Z,40.54
2023-01-18T23:25:38.720Z,40.37
2023-01-18T23:30:43.911Z,40.50
2023-01-18T23:35:50.786Z,41.26
2023-01-18T23:41:17.169Z,41.17
2023-01-18T23:46:41.715Z,39.86
2023-01-18T23:52:05.198Z,39.94
2023-01-18T23:57:11.298Z,40.44
